Terminal Aerodrome Forecast
Issued by NWS

Home | Current Version | Previous Version | Text Only | Print | Product List | Glossary On
Versions: 1 2 3 4 5 6 7 8 9 10 11 12
000
FTAK31 PAFA 252325
TAFAOT
TAF
PAOT 252325Z 2600/2624 26009KT P6SM SCT100 SCT200
     FM261200 29011KT P6SM SCT120 OVC150=

USA.gov is the U.S. government's official web portal to all federal, state and local government web resources and services.